sensor_id;sensor_type;location;lat;lon;timestamp;pressure;altitude;pressure_sealevel;temperature;humidity
6694;BME280;3384;42.628;23.380;2023-09-07T00:00:35;94711.03;;;19.44;100.00
6694;BME280;3384;42.628;23.380;2023-09-07T00:03:02;94714.47;;;19.69;100.00
6694;BME280;3384;42.628;23.380;2023-09-07T00:05:30;94728.06;;;19.69;100.00
6694;BME280;3384;42.628;23.380;2023-09-07T00:07:57;94698.03;;;19.65;100.00
6694;BME280;3384;42.628;23.380;2023-09-07T00:10:23;94703.63;;;19.57;100.00
6694;BME280;3384;42.628;23.380;2023-09-07T00:12:51;94711.75;;;19.69;100.00
6694;BME280;3384;42.628;23.380;2023-09-07T00:15:18;94703.81;;;19.64;100.00
6694;BME280;3384;42.628;23.380;2023-09-07T00:17:47;94699.19;;;20.07;100.00
6694;BME280;3384;42.628;23.380;2023-09-07T00:20:14;94706.63;;;19.95;100.00
6694;BME280;3384;42.628;23.380;2023-09-07T00:22:41;94702.50;;;20.01;100.00
6694;BME280;3384;42.628;23.380;2023-09-07T00:25:08;94707.31;;;20.19;100.00
6694;BME280;3384;42.628;23.380;2023-09-07T00:27:35;94707.84;;;20.25;100.00
6694;BME280;3384;42.628;23.380;2023-09-07T00:30:02;94711.19;;;20.34;100.00
6694;BME280;3384;42.628;23.380;2023-09-07T00:32:30;94702.75;;;19.96;100.00
6694;BME280;3384;42.628;23.380;2023-09-07T00:34:58;94703.50;;;19.81;100.00
6694;BME280;3384;42.628;23.380;2023-09-07T00:37:24;94706.34;;;20.00;100.00
6694;BME280;3384;42.628;23.380;2023-09-07T00:39:51;94702.38;;;19.82;100.00
6694;BME280;3384;42.628;23.380;2023-09-07T00:42:19;94699.91;;;19.77;100.00
6694;BME280;3384;42.628;23.380;2023-09-07T00:44:45;94698.56;;;19.71;100.00
6694;BME280;3384;42.628;23.380;2023-09-07T00:47:13;94696.13;;;19.54;100.00
6694;BME280;3384;42.628;23.380;2023-09-07T00:49:40;94699.31;;;19.56;100.00
6694;BME280;3384;42.628;23.380;2023-09-07T00:52:08;94709.84;;;19.57;100.00
6694;BME280;3384;42.628;23.380;2023-09-07T00:54:36;94704.16;;;19.35;100.00
6694;BME280;3384;42.628;23.380;2023-09-07T00:57:04;94692.16;;;19.24;100.00
6694;BME280;3384;42.628;23.380;2023-09-07T00:59:32;94692.47;;;19.22;100.00
6694;BME280;3384;42.628;23.380;2023-09-07T01:01:59;94705.97;;;19.31;100.00
6694;BME280;3384;42.628;23.380;2023-09-07T01:04:25;94697.00;;;19.30;100.00
6694;BME280;3384;42.628;23.380;2023-09-07T01:06:55;94698.94;;;19.18;100.00
6694;BME280;3384;42.628;23.380;2023-09-07T01:09:26;94698.72;;;19.35;100.00
6694;BME280;3384;42.628;23.380;2023-09-07T01:11:55;94700.97;;;19.33;100.00
6694;BME280;3384;42.628;23.380;2023-09-07T01:14:22;94698.13;;;19.69;100.00
6694;BME280;3384;42.628;23.380;2023-09-07T01:16:49;94699.69;;;19.42;100.00
6694;BME280;3384;42.628;23.380;2023-09-07T01:19:16;94706.19;;;19.38;100.00
6694;BME280;3384;42.628;23.380;2023-09-07T01:21:45;94709.22;;;19.24;100.00
6694;BME280;3384;42.628;23.380;2023-09-07T01:24:14;94705.28;;;19.22;100.00
6694;BME280;3384;42.628;23.380;2023-09-07T01:26:42;94706.31;;;19.29;100.00
6694;BME280;3384;42.628;23.380;2023-09-07T01:29:09;94705.50;;;19.29;100.00
6694;BME280;3384;42.628;23.380;2023-09-07T01:31:35;94699.97;;;19.25;100.00
6694;BME280;3384;42.628;23.380;2023-09-07T01:34:03;94703.13;;;19.27;100.00
6694;BME280;3384;42.628;23.380;2023-09-07T01:36:31;94693.38;;;19.14;100.00
6694;BME280;3384;42.628;23.380;2023-09-07T01:39:00;94695.75;;;19.16;100.00
6694;BME280;3384;42.628;23.380;2023-09-07T01:41:27;94700.75;;;19.26;100.00
6694;BME280;3384;42.628;23.380;2023-09-07T01:43:54;94703.94;;;19.28;100.00
6694;BME280;3384;42.628;23.380;2023-09-07T01:46:21;94699.66;;;19.54;100.00
6694;BME280;3384;42.628;23.380;2023-09-07T01:48:48;94696.25;;;19.57;100.00
6694;BME280;3384;42.628;23.380;2023-09-07T01:51:14;94688.50;;;19.71;100.00
6694;BME280;3384;42.628;23.380;2023-09-07T01:53:41;94692.78;;;19.45;100.00
6694;BME280;3384;42.628;23.380;2023-09-07T01:56:10;94694.09;;;19.51;100.00
6694;BME280;3384;42.628;23.380;2023-09-07T01:58:36;94694.44;;;19.49;100.00
6694;BME280;3384;42.628;23.380;2023-09-07T02:01:03;94690.41;;;19.71;100.00
6694;BME280;3384;42.628;23.380;2023-09-07T02:03:30;94686.06;;;19.54;100.00
6694;BME280;3384;42.628;23.380;2023-09-07T02:05:56;94693.13;;;19.71;100.00
6694;BME280;3384;42.628;23.380;2023-09-07T02:08:23;94681.56;;;19.74;100.00
6694;BME280;3384;42.628;23.380;2023-09-07T02:10:50;94685.63;;;19.80;100.00
6694;BME280;3384;42.628;23.380;2023-09-07T02:13:18;94685.13;;;19.90;100.00
6694;BME280;3384;42.628;23.380;2023-09-07T02:15:45;94687.53;;;19.79;100.00
6694;BME280;3384;42.628;23.380;2023-09-07T02:18:11;94684.97;;;19.71;100.00
6694;BME280;3384;42.628;23.380;2023-09-07T02:20:38;94680.91;;;19.65;100.00
6694;BME280;3384;42.628;23.380;2023-09-07T02:23:05;94684.94;;;19.83;100.00
6694;BME280;3384;42.628;23.380;2023-09-07T02:25:32;94689.81;;;19.77;100.00
6694;BME280;3384;42.628;23.380;2023-09-07T02:27:59;94700.53;;;19.86;100.00
6694;BME280;3384;42.628;23.380;2023-09-07T02:30:28;94693.28;;;19.35;100.00
6694;BME280;3384;42.628;23.380;2023-09-07T02:32:54;94694.50;;;19.37;100.00
6694;BME280;3384;42.628;23.380;2023-09-07T02:35:21;94691.16;;;19.56;100.00
6694;BME280;3384;42.628;23.380;2023-09-07T02:37:48;94691.03;;;19.52;100.00
6694;BME280;3384;42.628;23.380;2023-09-07T02:40:17;94693.63;;;19.61;100.00
6694;BME280;3384;42.628;23.380;2023-09-07T02:42:44;94697.84;;;19.58;100.00
6694;BME280;3384;42.628;23.380;2023-09-07T02:45:11;94696.88;;;19.39;100.00
6694;BME280;3384;42.628;23.380;2023-09-07T02:47:39;94704.34;;;19.42;100.00
6694;BME280;3384;42.628;23.380;2023-09-07T02:50:07;94708.31;;;19.44;100.00
6694;BME280;3384;42.628;23.380;2023-09-07T02:52:34;94706.13;;;19.50;100.00
6694;BME280;3384;42.628;23.380;2023-09-07T02:55:01;94699.59;;;19.66;100.00
6694;BME280;3384;42.628;23.380;2023-09-07T02:57:27;94709.22;;;19.76;100.00
6694;BME280;3384;42.628;23.380;2023-09-07T02:59:54;94708.31;;;19.72;100.00
6694;BME280;3384;42.628;23.380;2023-09-07T03:02:21;94708.06;;;19.77;100.00
6694;BME280;3384;42.628;23.380;2023-09-07T03:04:53;94709.94;;;19.61;100.00
6694;BME280;3384;42.628;23.380;2023-09-07T03:07:19;94712.03;;;19.52;100.00
6694;BME280;3384;42.628;23.380;2023-09-07T03:09:46;94708.38;;;19.48;100.00
6694;BME280;3384;42.628;23.380;2023-09-07T03:12:13;94712.84;;;19.40;100.00
6694;BME280;3384;42.628;23.380;2023-09-07T03:14:43;94714.41;;;19.41;100.00
6694;BME280;3384;42.628;23.380;2023-09-07T03:17:10;94710.72;;;19.22;100.00
6694;BME280;3384;42.628;23.380;2023-09-07T03:19:37;94708.91;;;19.38;100.00
6694;BME280;3384;42.628;23.380;2023-09-07T03:22:05;94707.53;;;19.20;100.00
6694;BME280;3384;42.628;23.380;2023-09-07T03:24:32;94703.72;;;19.08;100.00
6694;BME280;3384;42.628;23.380;2023-09-07T03:26:59;94700.91;;;19.05;100.00
6694;BME280;3384;42.628;23.380;2023-09-07T03:29:25;94704.28;;;19.02;100.00
6694;BME280;3384;42.628;23.380;2023-09-07T03:31:52;94708.13;;;19.13;100.00
6694;BME280;3384;42.628;23.380;2023-09-07T03:34:19;94713.00;;;19.08;100.00
6694;BME280;3384;42.628;23.380;2023-09-07T03:36:46;94712.56;;;18.81;100.00
6694;BME280;3384;42.628;23.380;2023-09-07T03:39:14;94701.00;;;18.84;100.00
6694;BME280;3384;42.628;23.380;2023-09-07T03:41:41;94714.25;;;18.86;100.00
6694;BME280;3384;42.628;23.380;2023-09-07T03:44:08;94717.53;;;18.91;100.00
6694;BME280;3384;42.628;23.380;2023-09-07T03:46:34;94710.63;;;19.06;100.00
6694;BME280;3384;42.628;23.380;2023-09-07T03:49:01;94714.47;;;19.05;100.00
6694;BME280;3384;42.628;23.380;2023-09-07T03:51:28;94729.41;;;18.87;100.00
6694;BME280;3384;42.628;23.380;2023-09-07T03:53:55;94723.56;;;18.85;100.00
6694;BME280;3384;42.628;23.380;2023-09-07T03:56:23;94726.25;;;18.85;100.00
6694;BME280;3384;42.628;23.380;2023-09-07T03:58:50;94732.84;;;18.84;100.00
6694;BME280;3384;42.628;23.380;2023-09-07T04:01:16;94729.19;;;18.80;100.00
6694;BME280;3384;42.628;23.380;2023-09-07T04:03:43;94738.84;;;18.89;100.00
6694;BME280;3384;42.628;23.380;2023-09-07T04:06:10;94743.53;;;19.17;100.00
6694;BME280;3384;42.628;23.380;2023-09-07T04:08:37;94741.63;;;19.17;100.00
6694;BME280;3384;42.628;23.380;2023-09-07T04:11:04;94729.50;;;19.15;100.00
6694;BME280;3384;42.628;23.380;2023-09-07T04:13:32;94737.41;;;19.20;100.00
6694;BME280;3384;42.628;23.380;2023-09-07T04:15:59;94740.03;;;19.40;100.00
6694;BME280;3384;42.628;23.380;2023-09-07T04:18:26;94740.53;;;18.82;100.00
6694;BME280;3384;42.628;23.380;2023-09-07T04:20:53;94734.16;;;19.14;100.00
6694;BME280;3384;42.628;23.380;2023-09-07T04:23:19;94733.84;;;19.03;100.00
6694;BME280;3384;42.628;23.380;2023-09-07T04:25:46;94736.75;;;19.35;100.00
6694;BME280;3384;42.628;23.380;2023-09-07T04:28:13;94734.13;;;19.38;100.00
6694;BME280;3384;42.628;23.380;2023-09-07T04:30:41;94735.41;;;19.29;100.00
6694;BME280;3384;42.628;23.380;2023-09-07T04:33:08;94730.97;;;19.24;100.00
6694;BME280;3384;42.628;23.380;2023-09-07T04:35:35;94732.25;;;18.90;100.00
6694;BME280;3384;42.628;23.380;2023-09-07T04:38:03;94737.22;;;19.00;100.00
6694;BME280;3384;42.628;23.380;2023-09-07T04:40:30;94743.69;;;18.84;100.00
6694;BME280;3384;42.628;23.380;2023-09-07T04:42:57;94748.78;;;18.73;100.00
6694;BME280;3384;42.628;23.380;2023-09-07T04:45:23;94745.03;;;18.66;100.00
6694;BME280;3384;42.628;23.380;2023-09-07T04:47:51;94752.06;;;18.79;100.00
6694;BME280;3384;42.628;23.380;2023-09-07T04:50:18;94752.28;;;18.86;100.00
6694;BME280;3384;42.628;23.380;2023-09-07T04:52:45;94759.03;;;18.56;100.00
6694;BME280;3384;42.628;23.380;2023-09-07T04:55:12;94751.94;;;18.51;100.00
6694;BME280;3384;42.628;23.380;2023-09-07T04:57:39;94767.66;;;18.58;100.00
6694;BME280;3384;42.628;23.380;2023-09-07T05:00:07;94753.19;;;18.66;100.00
6694;BME280;3384;42.628;23.380;2023-09-07T05:02:34;94744.91;;;18.74;100.00
6694;BME280;3384;42.628;23.380;2023-09-07T05:05:07;94764.72;;;18.87;100.00
6694;BME280;3384;42.628;23.380;2023-09-07T05:07:34;94747.66;;;19.11;100.00
6694;BME280;3384;42.628;23.380;2023-09-07T05:10:01;94746.03;;;19.09;100.00
6694;BME280;3384;42.628;23.380;2023-09-07T05:12:28;94746.63;;;19.15;100.00
6694;BME280;3384;42.628;23.380;2023-09-07T05:14:58;94761.13;;;18.95;100.00
6694;BME280;3384;42.628;23.380;2023-09-07T05:17:33;94766.09;;;19.05;100.00
6694;BME280;3384;42.628;23.380;2023-09-07T05:19:59;94758.16;;;18.76;100.00
6694;BME280;3384;42.628;23.380;2023-09-07T05:22:28;94769.13;;;18.67;100.00
6694;BME280;3384;42.628;23.380;2023-09-07T05:24:55;94767.88;;;18.53;100.00
6694;BME280;3384;42.628;23.380;2023-09-07T05:27:22;94762.13;;;18.54;100.00
6694;BME280;3384;42.628;23.380;2023-09-07T05:29:48;94778.94;;;18.48;100.00
6694;BME280;3384;42.628;23.380;2023-09-07T05:32:15;94782.47;;;18.48;100.00
6694;BME280;3384;42.628;23.380;2023-09-07T05:34:42;94774.22;;;18.69;100.00
6694;BME280;3384;42.628;23.380;2023-09-07T05:37:09;94775.69;;;18.66;100.00
6694;BME280;3384;42.628;23.380;2023-09-07T05:39:37;94776.94;;;18.69;100.00
6694;BME280;3384;42.628;23.380;2023-09-07T05:42:04;94772.41;;;18.73;100.00
6694;BME280;3384;42.628;23.380;2023-09-07T05:44:31;94770.88;;;18.84;100.00
6694;BME280;3384;42.628;23.380;2023-09-07T05:46:58;94779.09;;;18.87;100.00
6694;BME280;3384;42.628;23.380;2023-09-07T05:49:24;94771.41;;;19.01;100.00
6694;BME280;3384;42.628;23.380;2023-09-07T05:51:51;94768.13;;;18.96;100.00
6694;BME280;3384;42.628;23.380;2023-09-07T05:54:18;94767.22;;;18.92;100.00
6694;BME280;3384;42.628;23.380;2023-09-07T05:56:46;94766.44;;;18.91;100.00
6694;BME280;3384;42.628;23.380;2023-09-07T05:59:13;94758.72;;;19.05;100.00
6694;BME280;3384;42.628;23.380;2023-09-07T06:01:40;94768.00;;;19.17;100.00
6694;BME280;3384;42.628;23.380;2023-09-07T06:04:07;94768.13;;;19.20;100.00
6694;BME280;3384;42.628;23.380;2023-09-07T06:06:34;94771.41;;;19.26;100.00
6694;BME280;3384;42.628;23.380;2023-09-07T06:09:00;94775.81;;;19.42;100.00
6694;BME280;3384;42.628;23.380;2023-09-07T06:11:29;94773.16;;;19.58;100.00
6694;BME280;3384;42.628;23.380;2023-09-07T06:13:58;94770.91;;;19.60;100.00
6694;BME280;3384;42.628;23.380;2023-09-07T06:16:25;94774.97;;;19.66;100.00
6694;BME280;3384;42.628;23.380;2023-09-07T06:18:52;94767.38;;;19.71;100.00
6694;BME280;3384;42.628;23.380;2023-09-07T06:21:19;94770.22;;;19.90;100.00
6694;BME280;3384;42.628;23.380;2023-09-07T06:23:45;94777.09;;;20.00;100.00
6694;BME280;3384;42.628;23.380;2023-09-07T06:26:13;94769.75;;;20.00;100.00
6694;BME280;3384;42.628;23.380;2023-09-07T06:28:39;94770.56;;;19.89;100.00
6694;BME280;3384;42.628;23.380;2023-09-07T06:31:07;94780.41;;;20.05;100.00
6694;BME280;3384;42.628;23.380;2023-09-07T06:33:34;94778.97;;;20.23;100.00
6694;BME280;3384;42.628;23.380;2023-09-07T06:36:01;94773.75;;;20.18;100.00
6694;BME280;3384;42.628;23.380;2023-09-07T06:38:28;94779.59;;;20.32;100.00
6694;BME280;3384;42.628;23.380;2023-09-07T06:40:55;94773.38;;;20.32;100.00
6694;BME280;3384;42.628;23.380;2023-09-07T06:43:22;94769.44;;;20.76;100.00
6694;BME280;3384;42.628;23.380;2023-09-07T06:45:48;94770.88;;;20.54;100.00
6694;BME280;3384;42.628;23.380;2023-09-07T06:48:16;94770.50;;;20.56;100.00
6694;BME280;3384;42.628;23.380;2023-09-07T06:50:43;94771.13;;;20.65;100.00
6694;BME280;3384;42.628;23.380;2023-09-07T06:53:10;94776.31;;;20.85;100.00
6694;BME280;3384;42.628;23.380;2023-09-07T06:55:37;94765.66;;;20.80;100.00
6694;BME280;3384;42.628;23.380;2023-09-07T06:58:03;94776.03;;;20.75;100.00
6694;BME280;3384;42.628;23.380;2023-09-07T07:00:30;94761.03;;;20.81;100.00
6694;BME280;3384;42.628;23.380;2023-09-07T07:02:57;94760.34;;;20.99;100.00
6694;BME280;3384;42.628;23.380;2023-09-07T07:05:25;94765.78;;;20.84;100.00
6694;BME280;3384;42.628;23.380;2023-09-07T07:07:54;94754.78;;;20.80;100.00
6694;BME280;3384;42.628;23.380;2023-09-07T07:10:21;94763.22;;;20.75;100.00
6694;BME280;3384;42.628;23.380;2023-09-07T07:12:48;94768.41;;;20.80;100.00
6694;BME280;3384;42.628;23.380;2023-09-07T07:15:15;94774.13;;;20.91;100.00
6694;BME280;3384;42.628;23.380;2023-09-07T07:17:41;94771.63;;;20.55;100.00
6694;BME280;3384;42.628;23.380;2023-09-07T07:20:09;94765.75;;;20.53;100.00
6694;BME280;3384;42.628;23.380;2023-09-07T07:22:37;94776.84;;;20.75;100.00
6694;BME280;3384;42.628;23.380;2023-09-07T07:25:04;94780.53;;;20.83;100.00
6694;BME280;3384;42.628;23.380;2023-09-07T07:27:31;94783.63;;;20.66;100.00
6694;BME280;3384;42.628;23.380;2023-09-07T07:29:58;94778.53;;;20.64;100.00
6694;BME280;3384;42.628;23.380;2023-09-07T07:32:25;94789.13;;;20.69;100.00
6694;BME280;3384;42.628;23.380;2023-09-07T07:34:51;94789.16;;;20.85;100.00
6694;BME280;3384;42.628;23.380;2023-09-07T07:37:18;94779.81;;;20.86;100.00
6694;BME280;3384;42.628;23.380;2023-09-07T07:39:46;94778.06;;;20.78;100.00
6694;BME280;3384;42.628;23.380;2023-09-07T07:42:13;94779.56;;;20.75;100.00
6694;BME280;3384;42.628;23.380;2023-09-07T07:44:40;94782.19;;;20.72;100.00
6694;BME280;3384;42.628;23.380;2023-09-07T07:47:07;94783.34;;;20.71;100.00
6694;BME280;3384;42.628;23.380;2023-09-07T07:49:34;94780.53;;;20.83;100.00
6694;BME280;3384;42.628;23.380;2023-09-07T07:55:24;94788.69;;;20.83;100.00
6694;BME280;3384;42.628;23.380;2023-09-07T07:57:51;94794.53;;;20.81;100.00
6694;BME280;3384;42.628;23.380;2023-09-07T08:00:19;94784.41;;;20.82;100.00
6694;BME280;3384;42.628;23.380;2023-09-07T08:02:45;94784.34;;;20.94;100.00
6694;BME280;3384;42.628;23.380;2023-09-07T08:05:12;94775.88;;;21.30;100.00
6694;BME280;3384;42.628;23.380;2023-09-07T08:07:39;94783.34;;;21.33;100.00
6694;BME280;3384;42.628;23.380;2023-09-07T08:10:07;94779.91;;;21.36;100.00
6694;BME280;3384;42.628;23.380;2023-09-07T08:12:36;94782.63;;;21.36;100.00
6694;BME280;3384;42.628;23.380;2023-09-07T08:15:03;94773.97;;;21.15;100.00
6694;BME280;3384;42.628;23.380;2023-09-07T08:17:30;94777.50;;;21.50;100.00
6694;BME280;3384;42.628;23.380;2023-09-07T08:19:56;94772.28;;;21.45;100.00
6694;BME280;3384;42.628;23.380;2023-09-07T08:22:25;94761.72;;;21.24;100.00
6694;BME280;3384;42.628;23.380;2023-09-07T08:24:53;94766.09;;;21.63;100.00
6694;BME280;3384;42.628;23.380;2023-09-07T08:27:20;94762.06;;;21.57;100.00
6694;BME280;3384;42.628;23.380;2023-09-07T08:29:49;94755.31;;;21.51;100.00
6694;BME280;3384;42.628;23.380;2023-09-07T08:32:17;94758.09;;;21.55;100.00
6694;BME280;3384;42.628;23.380;2023-09-07T08:34:44;94772.47;;;21.87;100.00
6694;BME280;3384;42.628;23.380;2023-09-07T08:37:10;94761.75;;;21.78;100.00
6694;BME280;3384;42.628;23.380;2023-09-07T08:39:37;94762.03;;;21.73;100.00
6694;BME280;3384;42.628;23.380;2023-09-07T08:42:05;94766.00;;;21.95;100.00
6694;BME280;3384;42.628;23.380;2023-09-07T08:44:33;94768.88;;;21.83;100.00
6694;BME280;3384;42.628;23.380;2023-09-07T08:47:02;94752.81;;;21.62;100.00
6694;BME280;3384;42.628;23.380;2023-09-07T08:49:31;94770.31;;;21.77;100.00
6694;BME280;3384;42.628;23.380;2023-09-07T08:51:59;94755.88;;;21.60;100.00
6694;BME280;3384;42.628;23.380;2023-09-07T08:57:50;94750.06;;;21.78;100.00
6694;BME280;3384;42.628;23.380;2023-09-07T09:00:17;94747.34;;;21.97;100.00
6694;BME280;3384;42.628;23.380;2023-09-07T09:02:47;94746.25;;;21.82;100.00
6694;BME280;3384;42.628;23.380;2023-09-07T09:05:19;94748.75;;;21.72;100.00
6694;BME280;3384;42.628;23.380;2023-09-07T09:11:08;94744.44;;;22.28;100.00
6694;BME280;3384;42.628;23.380;2023-09-07T09:13:34;94745.66;;;22.30;100.00
6694;BME280;3384;42.628;23.380;2023-09-07T09:16:01;94746.94;;;22.17;100.00
6694;BME280;3384;42.628;23.380;2023-09-07T09:18:30;94743.53;;;22.01;100.00
6694;BME280;3384;42.628;23.380;2023-09-07T09:20:57;94759.88;;;22.39;100.00
6694;BME280;3384;42.628;23.380;2023-09-07T09:23:24;94744.84;;;22.30;100.00
6694;BME280;3384;42.628;23.380;2023-09-07T09:25:50;94742.03;;;22.04;100.00
6694;BME280;3384;42.628;23.380;2023-09-07T09:28:17;94743.91;;;22.00;100.00
6694;BME280;3384;42.628;23.380;2023-09-07T09:33:40;94760.81;;;22.28;100.00
6694;BME280;3384;42.628;23.380;2023-09-07T09:36:07;94745.06;;;22.40;100.00
6694;BME280;3384;42.628;23.380;2023-09-07T09:38:35;94738.47;;;22.22;100.00
6694;BME280;3384;42.628;23.380;2023-09-07T09:41:03;94734.28;;;22.28;100.00
6694;BME280;3384;42.628;23.380;2023-09-07T09:43:30;94737.59;;;22.37;100.00
6694;BME280;3384;42.628;23.380;2023-09-07T09:45:57;94730.59;;;22.59;100.00
6694;BME280;3384;42.628;23.380;2023-09-07T09:48:27;94732.88;;;22.79;100.00
6694;BME280;3384;42.628;23.380;2023-09-07T09:50:55;94735.69;;;22.83;100.00
6694;BME280;3384;42.628;23.380;2023-09-07T09:53:23;94726.88;;;22.48;100.00
6694;BME280;3384;42.628;23.380;2023-09-07T09:55:52;94733.22;;;22.74;100.00
6694;BME280;3384;42.628;23.380;2023-09-07T09:58:19;94731.81;;;23.10;100.00
6694;BME280;3384;42.628;23.380;2023-09-07T10:00:48;94728.22;;;22.57;93.97
6694;BME280;3384;42.628;23.380;2023-09-07T10:03:22;94724.16;;;22.93;93.79
6694;BME280;3384;42.628;23.380;2023-09-07T10:05:52;94721.81;;;22.95;93.04
6694;BME280;3384;42.628;23.380;2023-09-07T10:08:20;94719.81;;;22.92;99.50
6694;BME280;3384;42.628;23.380;2023-09-07T10:10:53;94708.81;;;23.11;97.79
6694;BME280;3384;42.628;23.380;2023-09-07T10:13:29;94714.72;;;22.90;100.00
6694;BME280;3384;42.628;23.380;2023-09-07T10:16:00;94709.13;;;22.83;100.00
6694;BME280;3384;42.628;23.380;2023-09-07T10:18:33;94715.09;;;23.15;98.03
6694;BME280;3384;42.628;23.380;2023-09-07T10:21:00;94717.81;;;22.89;96.55
6694;BME280;3384;42.628;23.380;2023-09-07T10:23:39;94710.09;;;22.94;97.02
6694;BME280;3384;42.628;23.380;2023-09-07T10:26:11;94713.06;;;22.86;95.65
6694;BME280;3384;42.628;23.380;2023-09-07T10:28:38;94714.56;;;23.06;94.02
6694;BME280;3384;42.628;23.380;2023-09-07T10:31:07;94701.78;;;23.13;93.43
6694;BME280;3384;42.628;23.380;2023-09-07T10:33:34;94709.34;;;22.97;94.11
6694;BME280;3384;42.628;23.380;2023-09-07T10:36:03;94701.78;;;22.87;92.50
6694;BME280;3384;42.628;23.380;2023-09-07T10:38:31;94695.44;;;23.06;93.29
6694;BME280;3384;42.628;23.380;2023-09-07T10:41:01;94693.59;;;23.39;86.15
6694;BME280;3384;42.628;23.380;2023-09-07T10:43:29;94696.03;;;23.44;85.54
6694;BME280;3384;42.628;23.380;2023-09-07T10:45:57;94691.81;;;23.24;89.45
6694;BME280;3384;42.628;23.380;2023-09-07T10:48:26;94695.03;;;23.59;85.26
6694;BME280;3384;42.628;23.380;2023-09-07T10:50:53;94700.06;;;23.54;85.18
6694;BME280;3384;42.628;23.380;2023-09-07T10:53:27;94701.97;;;23.50;87.26
6694;BME280;3384;42.628;23.380;2023-09-07T10:55:56;94701.88;;;23.72;82.94
6694;BME280;3384;42.628;23.380;2023-09-07T10:58:30;94696.72;;;23.67;84.09
6694;BME280;3384;42.628;23.380;2023-09-07T11:00:57;94694.16;;;23.22;88.44
6694;BME280;3384;42.628;23.380;2023-09-07T11:03:25;94700.84;;;23.25;87.89
6694;BME280;3384;42.628;23.380;2023-09-07T11:05:55;94702.84;;;23.28;85.67
6694;BME280;3384;42.628;23.380;2023-09-07T11:08:22;94698.94;;;23.29;88.75
6694;BME280;3384;42.628;23.380;2023-09-07T11:10:50;94693.25;;;23.18;87.03
6694;BME280;3384;42.628;23.380;2023-09-07T11:13:17;94696.56;;;23.27;86.12
6694;BME280;3384;42.628;23.380;2023-09-07T11:15:48;94693.16;;;23.11;90.20
6694;BME280;3384;42.628;23.380;2023-09-07T11:18:19;94703.22;;;23.04;92.17
6694;BME280;3384;42.628;23.380;2023-09-07T11:20:46;94695.00;;;23.26;90.52
6694;BME280;3384;42.628;23.380;2023-09-07T11:23:13;94691.91;;;23.05;92.45
6694;BME280;3384;42.628;23.380;2023-09-07T11:25:40;94699.38;;;23.31;89.97
6694;BME280;3384;42.628;23.380;2023-09-07T11:28:08;94698.47;;;23.23;91.60
6694;BME280;3384;42.628;23.380;2023-09-07T11:30:35;94692.84;;;23.42;90.06
6694;BME280;3384;42.628;23.380;2023-09-07T11:33:05;94693.47;;;23.58;87.66
6694;BME280;3384;42.628;23.380;2023-09-07T11:35:32;94702.47;;;23.29;89.75
6694;BME280;3384;42.628;23.380;2023-09-07T11:38:00;94690.34;;;23.30;90.36
6694;BME280;3384;42.628;23.380;2023-09-07T11:40:29;94686.34;;;23.24;90.25
6694;BME280;3384;42.628;23.380;2023-09-07T11:42:56;94688.22;;;23.20;90.14
6694;BME280;3384;42.628;23.380;2023-09-07T11:45:24;94688.16;;;23.17;89.65
6694;BME280;3384;42.628;23.380;2023-09-07T11:47:51;94692.72;;;23.32;88.67
6694;BME280;3384;42.628;23.380;2023-09-07T11:50:22;94681.59;;;23.21;91.10
6694;BME280;3384;42.628;23.380;2023-09-07T11:52:50;94684.63;;;22.90;93.48
6694;BME280;3384;42.628;23.380;2023-09-07T11:55:17;94682.38;;;22.96;95.78
6694;BME280;3384;42.628;23.380;2023-09-07T11:57:44;94678.25;;;23.05;95.20
6694;BME280;3384;42.628;23.380;2023-09-07T12:00:12;94681.09;;;23.12;96.02
6694;BME280;3384;42.628;23.380;2023-09-07T12:02:40;94681.03;;;23.09;93.88
6694;BME280;3384;42.628;23.380;2023-09-07T12:05:07;94673.66;;;22.87;94.99
6694;BME280;3384;42.628;23.380;2023-09-07T12:07:36;94675.03;;;23.00;98.12
6694;BME280;3384;42.628;23.380;2023-09-07T12:10:04;94674.38;;;23.10;94.90
6694;BME280;3384;42.628;23.380;2023-09-07T12:12:31;94677.06;;;23.29;94.44
6694;BME280;3384;42.628;23.380;2023-09-07T12:14:58;94670.78;;;23.28;93.36
6694;BME280;3384;42.628;23.380;2023-09-07T12:17:25;94671.88;;;23.24;93.58
6694;BME280;3384;42.628;23.380;2023-09-07T12:19:52;94667.50;;;23.19;93.77
6694;BME280;3384;42.628;23.380;2023-09-07T12:22:19;94675.25;;;23.14;95.49
6694;BME280;3384;42.628;23.380;2023-09-07T12:24:47;94669.94;;;23.24;93.02
6694;BME280;3384;42.628;23.380;2023-09-07T12:27:15;94670.56;;;23.14;94.03
6694;BME280;3384;42.628;23.380;2023-09-07T12:29:43;94674.09;;;23.15;89.01
6694;BME280;3384;42.628;23.380;2023-09-07T12:32:10;94669.41;;;23.41;88.78
6694;BME280;3384;42.628;23.380;2023-09-07T12:34:56;94669.38;;;23.38;87.20
6694;BME280;3384;42.628;23.380;2023-09-07T12:37:23;94671.25;;;23.08;92.94
6694;BME280;3384;42.628;23.380;2023-09-07T12:39:51;94665.00;;;23.33;88.62
6694;BME280;3384;42.628;23.380;2023-09-07T12:42:18;94668.94;;;23.36;87.02
6694;BME280;3384;42.628;23.380;2023-09-07T12:44:45;94670.75;;;23.54;86.10
6694;BME280;3384;42.628;23.380;2023-09-07T12:47:11;94676.91;;;23.48;85.98
6694;BME280;3384;42.628;23.380;2023-09-07T12:49:38;94671.91;;;23.53;85.17
6694;BME280;3384;42.628;23.380;2023-09-07T12:52:05;94679.91;;;23.39;88.15
6694;BME280;3384;42.628;23.380;2023-09-07T12:54:34;94677.75;;;23.52;87.09
6694;BME280;3384;42.628;23.380;2023-09-07T12:57:04;94678.31;;;23.64;84.43
6694;BME280;3384;42.628;23.380;2023-09-07T12:59:30;94675.09;;;23.88;82.90
6694;BME280;3384;42.628;23.380;2023-09-07T13:01:57;94682.69;;;23.72;82.30
6694;BME280;3384;42.628;23.380;2023-09-07T13:04:24;94683.78;;;23.64;85.21
6694;BME280;3384;42.628;23.380;2023-09-07T13:06:51;94669.47;;;23.45;85.35
6694;BME280;3384;42.628;23.380;2023-09-07T13:09:18;94673.88;;;23.56;86.75
6694;BME280;3384;42.628;23.380;2023-09-07T13:11:44;94674.31;;;23.58;85.99
6694;BME280;3384;42.628;23.380;2023-09-07T13:14:12;94669.84;;;23.76;84.03
6694;BME280;3384;42.628;23.380;2023-09-07T13:16:39;94674.16;;;23.77;83.93